Glory Sky — 3EPW8 — position and weather

sailwx.info

Track history (hours):
 
Tides and Currents Weather Stations Pressure Air Temp Water Temp Dewpoint Dewpoint Depression Visibility Wind Speed Wind Dir Waves Ship Positions

Glory Sky

Last reported at 2018-Feb-12 17:13 UTC. Time now 2018-Feb-21 05:51 UTC.
Position S 29°39' E 031°59'.
Warning: this ship's position is 8 days out of date.

Length 145 m; draft 6.2 m.

Type: Cargo ship. MMSI: 352150000.

Date/timePositionNaut miles runAvg speedWind from/ knotsBaromVisibWave heightAir tempDewpointWater temp
2018-Feb-12 17:13S 29°39' E 031°59'2 8.4
2018-Feb-12 16:58S 29°39' E 031°57'4 8.2
2018-Feb-12 16:30S 29°40' E 031°53'4 7.8
2018-Feb-12 16:00S 29°41' E 031°49'4 7.7
2018-Feb-12 15:30S 29°42' E 031°44'4 7.4
2018-Feb-12 15:00S 29°43' E 031°40'2 4.0
2018-Feb-12 14:30S 29°43' E 031°38'3 5.3
2018-Feb-12 14:00S 29°44' E 031°35'510.2
2018-Feb-12 13:30S 29°45' E 031°29'611.2
2018-Feb-12 13:00S 29°47' E 031°23'611.1
2018-Feb-12 12:30S 29°48' E 031°17'611.2
2018-Feb-12 12:00S 29°49' E 031°10'4 7.9
2018-Feb-12 11:30S 29°50' E 031°06'3 5.4
2018-Feb-12 11:00S 29°47' E 031°07'3 5.7
2018-Feb-12 10:30S 29°50' E 031°06'4 8.4
2018-Feb-12 10:00S 29°53' E 031°02'0 1.0
2018-Feb-12 09:30S 29°52' E 031°02'0 0.0
2018-Feb-12 08:51S 29°52' E 031°02'0 0.0
2018-Feb-12 08:30S 29°52' E 031°02'0 0.0
2018-Feb-12 07:42S 29°52' E 031°02'0 0.0
2018-Feb-12 07:30S 29°52' E 031°02'0 0.0
2018-Feb-12 07:00S 29°52' E 031°02'0 0.0
2018-Feb-12 06:30S 29°52' E 031°02'0 0.0
2018-Feb-12 06:00S 29°52' E 031°02'0 0.0
2018-Feb-12 05:27S 29°52' E 031°02'0 0.0
2018-Feb-12 05:00S 29°52' E 031°02'0 0.0
2018-Feb-12 04:30S 29°52' E 031°02'0 0.0
2018-Feb-12 03:57S 29°52' E 031°02'0 0.0
2018-Feb-12 03:30S 29°52' E 031°02'0 0.0
2018-Feb-12 03:00S 29°52' E 031°02'0 0.0
2018-Feb-12 02:30S 29°52' E 031°02'0 0.0
2018-Feb-12 01:54S 29°52' E 031°02'0 0.0
2018-Feb-12 01:30S 29°52' E 031°02'0 0.0
2018-Feb-12 01:00S 29°52' E 031°02'0 0.0
2018-Feb-12 00:30S 29°52' E 031°02'0 0.0
2018-Feb-11 23:54S 29°52' E 031°02'0 0.0
2018-Feb-11 23:30S 29°52' E 031°02'0 0.0
2018-Feb-11 23:00S 29°52' E 031°02'0 0.0
2018-Feb-11 22:30S 29°52' E 031°02'0 0.0
2018-Feb-11 22:00S 29°52' E 031°02'0 0.0
2018-Feb-11 21:30S 29°52' E 031°02'0 0.0
2018-Feb-11 21:00S 29°52' E 031°02'0 0.0
2018-Feb-11 20:30S 29°52' E 031°02'0 0.0
2018-Feb-11 20:00S 29°52' E 031°02'0 0.0
2018-Feb-11 19:30S 29°52' E 031°02'0 0.0
2018-Feb-11 19:00S 29°52' E 031°02'0 0.0
2018-Feb-11 18:30S 29°52' E 031°02'0 0.0
2018-Feb-11 18:00S 29°52' E 031°02'0 0.0
2018-Feb-11 17:30S 29°52' E 031°02'0 0.0
2018-Feb-11 17:00S 29°52' E 031°02'0 0.0
2018-Feb-11 16:30S 29°52' E 031°02'0 0.0
2018-Feb-11 16:00S 29°52' E 031°02'0 0.0
2018-Feb-11 15:30S 29°52' E 031°02'0 0.0
2018-Feb-11 15:00S 29°52' E 031°02'0 0.0
2018-Feb-11 14:30S 29°52' E 031°02'0 0.0
2018-Feb-11 14:00S 29°52' E 031°02'0 0.0
2018-Feb-11 13:30S 29°52' E 031°02'0 0.0
2018-Feb-11 13:00S 29°52' E 031°02'0 0.0
2018-Feb-11 12:30S 29°52' E 031°02'0 0.0
2018-Feb-11 12:00S 29°52' E 031°02'0 0.0
2018-Feb-11 11:30S 29°52' E 031°02'0 0.0
2018-Feb-11 11:00S 29°52' E 031°02'0 0.0
2018-Feb-11 10:30S 29°52' E 031°02'0 0.0
2018-Feb-11 10:00S 29°52' E 031°02'0 0.0
2018-Feb-11 09:30S 29°52' E 031°02'0 0.0
2018-Feb-11 09:00S 29°52' E 031°02'0 0.0
2018-Feb-11 08:27S 29°52' E 031°02'0 0.0
2018-Feb-11 08:00S 29°52' E 031°02'0 0.0
2018-Feb-11 07:27S 29°52' E 031°02'0 0.0
2018-Feb-11 07:00S 29°52' E 031°02'0 0.0
2018-Feb-11 06:30S 29°52' E 031°02'0 0.0
2018-Feb-11 06:00S 29°52' E 031°02'0 0.0
2018-Feb-11 05:30S 29°52' E 031°02'0 0.0
2018-Feb-11 05:00S 29°52' E 031°02'0 0.0
2018-Feb-11 04:30S 29°52' E 031°02'0 0.0
2018-Feb-11 04:00S 29°52' E 031°02'0 0.0
2018-Feb-11 03:30S 29°52' E 031°02'0 0.0
2018-Feb-11 03:00S 29°52' E 031°02'0 0.0
2018-Feb-11 02:30S 29°52' E 031°02'0 0.0
2018-Feb-11 01:57S 29°52' E 031°02'0 0.0
2018-Feb-11 01:21S 29°52' E 031°02'0 0.0
2018-Feb-11 01:00S 29°52' E 031°02'0 0.0
2018-Feb-11 00:30S 29°52' E 031°02'0 0.0
2018-Feb-11 00:00S 29°52' E 031°02'0 0.0
2018-Feb-10 23:30S 29°52' E 031°02'0 0.0
2018-Feb-10 23:00S 29°52' E 031°02'0 0.0
2018-Feb-10 22:30S 29°52' E 031°02'0 0.0
2018-Feb-10 21:45S 29°52' E 031°02'0 0.0
2018-Feb-10 21:30S 29°52' E 031°02'0 0.0
2018-Feb-10 21:00S 29°52' E 031°02'0 0.0
2018-Feb-10 20:30S 29°52' E 031°02'0 0.0
2018-Feb-10 20:00S 29°52' E 031°02'0 0.0
2018-Feb-10 19:30S 29°52' E 031°02'0 0.0
2018-Feb-10 19:00S 29°52' E 031°02'0 0.0
2018-Feb-10 18:30S 29°52' E 031°02'0 0.0
2018-Feb-10 17:57S 29°52' E 031°02'0 0.0
2018-Feb-10 17:30S 29°52' E 031°02'0 0.0
2018-Feb-10 17:00S 29°52' E 031°02'0 0.0
2018-Feb-10 16:27S 29°52' E 031°02'0 0.0
2018-Feb-10 16:00S 29°52' E 031°02'0 0.0
2018-Feb-10 15:30S 29°52' E 031°02'0 0.0
2018-Feb-10 15:00S 29°52' E 031°02'0 0.0
2018-Feb-10 14:30S 29°52' E 031°02'0 0.0
2018-Feb-10 14:00S 29°52' E 031°02'0 0.0
2018-Feb-10 13:30S 29°52' E 031°02'0 0.0
2018-Feb-10 13:00S 29°52' E 031°02'0 0.0
2018-Feb-10 12:30S 29°52' E 031°02'0 0.0
2018-Feb-10 12:00S 29°52' E 031°02'0 0.0
2018-Feb-10 11:30S 29°52' E 031°02'0 0.0
2018-Feb-10 10:54S 29°52' E 031°02'0 0.0
2018-Feb-10 10:30S 29°52' E 031°02'0 0.0
2018-Feb-10 10:00S 29°52' E 031°02'0 0.0
2018-Feb-10 09:30S 29°52' E 031°02'0 0.0
2018-Feb-10 08:54S 29°52' E 031°02'0 0.0
2018-Feb-10 08:30S 29°52' E 031°02'0 0.0
2018-Feb-10 07:48S 29°52' E 031°02'0 0.0
2018-Feb-10 07:30S 29°52' E 031°02'0 0.0
2018-Feb-10 07:00S 29°52' E 031°02'0 0.0
2018-Feb-10 06:30S 29°52' E 031°02'0 0.0
2018-Feb-10 06:00S 29°52' E 031°02'0 0.0
2018-Feb-10 05:30S 29°52' E 031°02'0 0.0
2018-Feb-10 05:00S 29°52' E 031°02'0 0.0
2018-Feb-10 04:30S 29°52' E 031°02'0 0.0
2018-Feb-10 04:00S 29°52' E 031°02'0 0.0
2018-Feb-10 03:30S 29°52' E 031°02'0 0.0
2018-Feb-10 03:00S 29°52' E 031°02'0 0.0
2018-Feb-10 02:24S 29°52' E 031°02'0 0.0
2018-Feb-10 02:00S 29°52' E 031°02'0 0.0
2018-Feb-10 01:18S 29°52' E 031°02'0 0.0
2018-Feb-10 01:00S 29°52' E 031°02'0 0.0
2018-Feb-10 00:30S 29°52' E 031°02'0 0.0
2018-Feb-10 00:00S 29°52' E 031°02'0 0.0
2018-Feb-09 23:30S 29°52' E 031°02'0 0.0
2018-Feb-09 23:00S 29°52' E 031°02'0 0.0
2018-Feb-09 22:45S 29°52' E 031°02'0 0.0
2018-Feb-08 14:30S 29°52' E 031°02'5 3.5
2018-Feb-08 13:00S 29°49' E 031°07'3 6.1
2018-Feb-08 12:30S 29°50' E 031°10'4 3.9
2018-Feb-08 11:30S 29°54' E 031°09'1111.4
2018-Feb-08 10:30S 30°03' E 031°03'1711.4
2018-Feb-08 09:00S 30°18' E 030°52'  
Track history (hours):
 
Tides and Currents Weather Stations Pressure Air Temp Water Temp Dewpoint Dewpoint Depression Visibility Wind Speed Wind Dir Waves Ship Positions

Glory Sky

Last reported at 2018-Feb-12 17:13 UTC. Time now 2018-Feb-21 05:51 UTC.
Position S 29°39' E 031°59'.
Warning: this ship's position is 8 days out of date.

Length 145 m; draft 6.2 m.

Type: Cargo ship. MMSI: 352150000.

Date/timePositionNaut miles runAvg speedWind from/ knotsBaromVisibWave heightAir tempDewpointWater temp
2018-Feb-12 17:13S 29°39' E 031°59'2 8.4
2018-Feb-12 16:58S 29°39' E 031°57'4 8.2
2018-Feb-12 16:30S 29°40' E 031°53'4 7.8
2018-Feb-12 16:00S 29°41' E 031°49'4 7.7
2018-Feb-12 15:30S 29°42' E 031°44'4 7.4
2018-Feb-12 15:00S 29°43' E 031°40'2 4.0
2018-Feb-12 14:30S 29°43' E 031°38'3 5.3
2018-Feb-12 14:00S 29°44' E 031°35'510.2
2018-Feb-12 13:30S 29°45' E 031°29'611.2
2018-Feb-12 13:00S 29°47' E 031°23'611.1
2018-Feb-12 12:30S 29°48' E 031°17'611.2
2018-Feb-12 12:00S 29°49' E 031°10'4 7.9
2018-Feb-12 11:30S 29°50' E 031°06'3 5.4
2018-Feb-12 11:00S 29°47' E 031°07'3 5.7
2018-Feb-12 10:30S 29°50' E 031°06'4 8.4
2018-Feb-12 10:00S 29°53' E 031°02'0 1.0
2018-Feb-12 09:30S 29°52' E 031°02'0 0.0
2018-Feb-12 08:51S 29°52' E 031°02'0 0.0
2018-Feb-12 08:30S 29°52' E 031°02'0 0.0
2018-Feb-12 07:42S 29°52' E 031°02'0 0.0
2018-Feb-12 07:30S 29°52' E 031°02'0 0.0
2018-Feb-12 07:00S 29°52' E 031°02'0 0.0
2018-Feb-12 06:30S 29°52' E 031°02'0 0.0
2018-Feb-12 06:00S 29°52' E 031°02'0 0.0
2018-Feb-12 05:27S 29°52' E 031°02'0 0.0
2018-Feb-12 05:00S 29°52' E 031°02'0 0.0
2018-Feb-12 04:30S 29°52' E 031°02'0 0.0
2018-Feb-12 03:57S 29°52' E 031°02'0 0.0
2018-Feb-12 03:30S 29°52' E 031°02'0 0.0
2018-Feb-12 03:00S 29°52' E 031°02'0 0.0
2018-Feb-12 02:30S 29°52' E 031°02'0 0.0
2018-Feb-12 01:54S 29°52' E 031°02'0 0.0
2018-Feb-12 01:30S 29°52' E 031°02'0 0.0
2018-Feb-12 01:00S 29°52' E 031°02'0 0.0
2018-Feb-12 00:30S 29°52' E 031°02'0 0.0
2018-Feb-11 23:54S 29°52' E 031°02'0 0.0
2018-Feb-11 23:30S 29°52' E 031°02'0 0.0
2018-Feb-11 23:00S 29°52' E 031°02'0 0.0
2018-Feb-11 22:30S 29°52' E 031°02'0 0.0
2018-Feb-11 22:00S 29°52' E 031°02'0 0.0
2018-Feb-11 21:30S 29°52' E 031°02'0 0.0
2018-Feb-11 21:00S 29°52' E 031°02'0 0.0
2018-Feb-11 20:30S 29°52' E 031°02'0 0.0
2018-Feb-11 20:00S 29°52' E 031°02'0 0.0
2018-Feb-11 19:30S 29°52' E 031°02'0 0.0
2018-Feb-11 19:00S 29°52' E 031°02'0 0.0
2018-Feb-11 18:30S 29°52' E 031°02'0 0.0
2018-Feb-11 18:00S 29°52' E 031°02'0 0.0
2018-Feb-11 17:30S 29°52' E 031°02'0 0.0
2018-Feb-11 17:00S 29°52' E 031°02'0 0.0
2018-Feb-11 16:30S 29°52' E 031°02'0 0.0
2018-Feb-11 16:00S 29°52' E 031°02'0 0.0
2018-Feb-11 15:30S 29°52' E 031°02'0 0.0
2018-Feb-11 15:00S 29°52' E 031°02'0 0.0
2018-Feb-11 14:30S 29°52' E 031°02'0 0.0
2018-Feb-11 14:00S 29°52' E 031°02'0 0.0
2018-Feb-11 13:30S 29°52' E 031°02'0 0.0
2018-Feb-11 13:00S 29°52' E 031°02'0 0.0
2018-Feb-11 12:30S 29°52' E 031°02'0 0.0
2018-Feb-11 12:00S 29°52' E 031°02'0 0.0
2018-Feb-11 11:30S 29°52' E 031°02'0 0.0
2018-Feb-11 11:00S 29°52' E 031°02'0 0.0
2018-Feb-11 10:30S 29°52' E 031°02'0 0.0
2018-Feb-11 10:00S 29°52' E 031°02'0 0.0
2018-Feb-11 09:30S 29°52' E 031°02'0 0.0
2018-Feb-11 09:00S 29°52' E 031°02'0 0.0
2018-Feb-11 08:27S 29°52' E 031°02'0 0.0
2018-Feb-11 08:00S 29°52' E 031°02'0 0.0
2018-Feb-11 07:27S 29°52' E 031°02'0 0.0
2018-Feb-11 07:00S 29°52' E 031°02'0 0.0
2018-Feb-11 06:30S 29°52' E 031°02'0 0.0
2018-Feb-11 06:00S 29°52' E 031°02'0 0.0
2018-Feb-11 05:30S 29°52' E 031°02'0 0.0
2018-Feb-11 05:00S 29°52' E 031°02'0 0.0
2018-Feb-11 04:30S 29°52' E 031°02'0 0.0
2018-Feb-11 04:00S 29°52' E 031°02'0 0.0
2018-Feb-11 03:30S 29°52' E 031°02'0 0.0
2018-Feb-11 03:00S 29°52' E 031°02'0 0.0
2018-Feb-11 02:30S 29°52' E 031°02'0 0.0
2018-Feb-11 01:57S 29°52' E 031°02'0 0.0
2018-Feb-11 01:21S 29°52' E 031°02'0 0.0
2018-Feb-11 01:00S 29°52' E 031°02'0 0.0
2018-Feb-11 00:30S 29°52' E 031°02'0 0.0
2018-Feb-11 00:00S 29°52' E 031°02'0 0.0
2018-Feb-10 23:30S 29°52' E 031°02'0 0.0
2018-Feb-10 23:00S 29°52' E 031°02'0 0.0
2018-Feb-10 22:30S 29°52' E 031°02'0 0.0
2018-Feb-10 21:45S 29°52' E 031°02'0 0.0
2018-Feb-10 21:30S 29°52' E 031°02'0 0.0
2018-Feb-10 21:00S 29°52' E 031°02'0 0.0
2018-Feb-10 20:30S 29°52' E 031°02'0 0.0
2018-Feb-10 20:00S 29°52' E 031°02'0 0.0
2018-Feb-10 19:30S 29°52' E 031°02'0 0.0
2018-Feb-10 19:00S 29°52' E 031°02'0 0.0
2018-Feb-10 18:30S 29°52' E 031°02'0 0.0
2018-Feb-10 17:57S 29°52' E 031°02'0 0.0
2018-Feb-10 17:30S 29°52' E 031°02'0 0.0
2018-Feb-10 17:00S 29°52' E 031°02'0 0.0
2018-Feb-10 16:27S 29°52' E 031°02'0 0.0
2018-Feb-10 16:00S 29°52' E 031°02'0 0.0
2018-Feb-10 15:30S 29°52' E 031°02'0 0.0
2018-Feb-10 15:00S 29°52' E 031°02'0 0.0
2018-Feb-10 14:30S 29°52' E 031°02'0 0.0
2018-Feb-10 14:00S 29°52' E 031°02'0 0.0
2018-Feb-10 13:30S 29°52' E 031°02'0 0.0
2018-Feb-10 13:00S 29°52' E 031°02'0 0.0
2018-Feb-10 12:30S 29°52' E 031°02'0 0.0
2018-Feb-10 12:00S 29°52' E 031°02'0 0.0
2018-Feb-10 11:30S 29°52' E 031°02'0 0.0
2018-Feb-10 10:54S 29°52' E 031°02'0 0.0
2018-Feb-10 10:30S 29°52' E 031°02'0 0.0
2018-Feb-10 10:00S 29°52' E 031°02'0 0.0
2018-Feb-10 09:30S 29°52' E 031°02'0 0.0
2018-Feb-10 08:54S 29°52' E 031°02'0 0.0
2018-Feb-10 08:30S 29°52' E 031°02'0 0.0
2018-Feb-10 07:48S 29°52' E 031°02'0 0.0
2018-Feb-10 07:30S 29°52' E 031°02'0 0.0
2018-Feb-10 07:00S 29°52' E 031°02'0 0.0
2018-Feb-10 06:30S 29°52' E 031°02'0 0.0
2018-Feb-10 06:00S 29°52' E 031°02'0 0.0
2018-Feb-10 05:30S 29°52' E 031°02'0 0.0
2018-Feb-10 05:00S 29°52' E 031°02'0 0.0
2018-Feb-10 04:30S 29°52' E 031°02'0 0.0
2018-Feb-10 04:00S 29°52' E 031°02'0 0.0
2018-Feb-10 03:30S 29°52' E 031°02'0 0.0
2018-Feb-10 03:00S 29°52' E 031°02'0 0.0
2018-Feb-10 02:24S 29°52' E 031°02'0 0.0
2018-Feb-10 02:00S 29°52' E 031°02'0 0.0
2018-Feb-10 01:18S 29°52' E 031°02'0 0.0
2018-Feb-10 01:00S 29°52' E 031°02'0 0.0
2018-Feb-10 00:30S 29°52' E 031°02'0 0.0
2018-Feb-10 00:00S 29°52' E 031°02'0 0.0
2018-Feb-09 23:30S 29°52' E 031°02'0 0.0
2018-Feb-09 23:00S 29°52' E 031°02'0 0.0
2018-Feb-09 22:45S 29°52' E 031°02'0 0.0
2018-Feb-08 14:30S 29°52' E 031°02'5 3.5
2018-Feb-08 13:00S 29°49' E 031°07'3 6.1
2018-Feb-08 12:30S 29°50' E 031°10'4 3.9
2018-Feb-08 11:30S 29°54' E 031°09'1111.4
2018-Feb-08 10:30S 30°03' E 031°03'1711.4
2018-Feb-08 09:00S 30°18' E 030°52'  

Dump ship's entire track history